Time;durP1;ratioP1;P1;durP2;ratioP2;P2;SDS_P1;SDS_P2;PMS_P1;PMS_P2;Temp;Humidity;BMP_temperature;BMP_pressure;BME280_temperature;BME280_humidity;BME280_pressure;Samples;Min_cycle;Max_cycle;Signal;HPM_P1;HPM_P2
2021/12/24 00:01:10;;;;;;;4.28;3.65;;;;;;;0.70;65.20;99358.94;4468324;32;34799;-68
2021/12/24 00:03:38;;;;;;;51.05;28.10;;;;;;;0.23;66.82;99358.53;4468106;32;33639;-68
2021/12/24 00:06:07;;;;;;;7.03;3.30;;;;;;;0.03;67.83;99376.19;4467765;32;34780;-69
2021/12/24 00:08:35;;;;;;;3.85;3.22;;;;;;;0.30;66.94;99364.78;4468615;32;35016;-68
2021/12/24 00:11:04;;;;;;;48.35;27.42;;;;;;;0.15;67.58;99355.97;4468272;32;34292;-69
2021/12/24 00:13:35;;;;;;;3.05;2.45;;;;;;;0.56;65.61;99372.19;4467529;32;33816;-69
2021/12/24 00:37:30;;;;;;;2.70;2.12;;;;;;;0.12;68.24;99317.19;4468296;32;33781;-68
2021/12/24 00:40:11;;;;;;;6.30;4.22;;;;;;;0.54;66.24;99303.97;4468276;32;33950;-69
2021/12/24 00:42:43;;;;;;;53.53;30.42;;;;;;;0.64;65.26;99292.94;4468167;32;34953;-68
2021/12/24 00:45:13;;;;;;;2.72;2.47;;;;;;;0.18;67.57;99280.94;4468177;32;33547;-68
2021/12/24 00:47:43;;;;;;;5.72;3.78;;;;;;;0.79;65.44;99275.78;4467782;32;34741;-68
2021/12/24 00:50:15;;;;;;;5.00;4.22;;;;;;;0.87;65.14;99276.66;4467765;32;33672;-68
2021/12/24 00:55:27;;;;;;;51.90;29.70;;;;;;;0.12;66.95;99245.16;4467094;32;34725;-69
2021/12/24 00:58:01;;;;;;;55.78;29.23;;;;;;;0.17;66.83;99268.59;4467040;32;34004;-69
2021/12/24 01:00:32;;;;;;;56.08;29.85;;;;;;;0.24;66.53;99237.47;4467664;32;34216;-68
2021/12/24 01:03:01;;;;;;;52.65;27.75;;;;;;;0.18;66.50;99227.56;4468203;32;34726;-68
2021/12/24 01:05:30;;;;;;;50.55;28.40;;;;;;;-0.03;67.39;99231.91;4468520;32;34526;-69
2021/12/24 01:07:59;;;;;;;48.97;26.92;;;;;;;0.53;65.27;99217.72;4466990;32;33882;-68
2021/12/24 01:10:37;;;;;;;53.00;29.33;;;;;;;0.25;66.21;99192.94;4468030;32;35674;-68
2021/12/24 01:13:05;;;;;;;51.88;29.83;;;;;;;-0.25;68.41;99174.31;4467735;32;34812;-68
2021/12/24 01:15:36;;;;;;;55.10;29.37;;;;;;;-0.47;69.95;99193.00;4468146;32;33808;-68
2021/12/24 01:18:13;;;;;;;9.27;3.03;;;;;;;-0.07;68.76;99173.84;4468297;32;34660;-68
2021/12/24 01:20:48;;;;;;;56.80;29.17;;;;;;;-0.90;71.94;99177.00;4467537;32;34143;-69
2021/12/24 01:23:43;;;;;;;3.80;2.30;;;;;;;-0.34;69.68;99162.97;4468014;32;33840;-69
2021/12/24 01:26:18;;;;;;;51.70;29.17;;;;;;;-0.31;69.19;99167.91;4467777;32;34161;-68
2021/12/24 01:42:41;;;;;;;56.72;30.35;;;;;;;0.26;68.21;99206.09;4465001;32;34170;-71
2021/12/24 01:45:26;;;;;;;57.42;28.58;;;;;;;0.50;67.78;99180.78;4467781;32;34237;-68
2021/12/24 01:47:59;;;;;;;48.38;28.12;;;;;;;0.17;68.95;99186.75;4467235;32;34273;-68
2021/12/24 01:50:28;;;;;;;2.15;1.95;;;;;;;-0.38;71.35;99193.69;4467472;32;35349;-68
2021/12/24 01:52:57;;;;;;;50.78;28.83;;;;;;;-0.02;69.63;99192.75;4467736;32;33767;-69
2021/12/24 01:55:26;;;;;;;3.90;3.55;;;;;;;-0.21;70.17;99165.75;4467591;32;34072;-68
2021/12/24 01:57:54;;;;;;;52.83;29.63;;;;;;;0.21;68.55;99152.47;4466499;32;34437;-68
2021/12/24 02:00:28;;;;;;;6.05;3.47;;;;;;;0.18;68.35;99153.69;4467029;32;33466;-69
2021/12/24 02:02:55;;;;;;;52.97;29.15;;;;;;;0.26;68.74;99152.72;4467421;32;33860;-69
2021/12/24 02:05:24;;;;;;;54.13;30.85;;;;;;;-0.04;69.49;99154.78;4467424;32;34232;-69
2021/12/24 02:07:52;;;;;;;2.83;1.77;;;;;;;0.09;68.82;99138.88;4466930;32;33618;-69
2021/12/24 02:10:19;;;;;;;52.80;28.80;;;;;;;0.28;69.24;99147.16;4466794;32;33924;-68
2021/12/24 02:12:48;;;;;;;50.53;28.33;;;;;;;0.57;67.84;99140.75;4467405;32;34925;-69
2021/12/24 02:16:05;;;;;;;8.32;2.87;;;;;;;0.60;67.65;99130.53;4466675;32;34126;-69
2021/12/24 02:18:41;;;;;;;48.55;28.05;;;;;;;1.00;66.85;99132.47;4466907;32;33627;-68
2021/12/24 02:29:25;;;;;;;51.58;29.17;;;;;;;0.81;67.44;99096.69;4468991;32;33779;-68
2021/12/24 02:31:53;;;;;;;52.03;28.40;;;;;;;0.50;67.46;99100.69;4469490;32;33549;-69
2021/12/24 02:34:20;;;;;;;4.47;2.45;;;;;;;1.00;66.45;99111.94;4469069;32;33958;-68
2021/12/24 02:36:48;;;;;;;2.08;1.42;;;;;;;0.88;66.86;99104.72;4469526;32;34956;-69
2021/12/24 02:39:16;;;;;;;55.33;28.52;;;;;;;0.33;69.25;99084.19;4469032;32;33498;-69
2021/12/24 02:41:43;;;;;;;55.22;30.62;;;;;;;1.28;65.54;99064.69;4469189;32;33599;-69
2021/12/24 02:44:11;;;;;;;2.40;2.20;;;;;;;0.64;67.38;99060.69;4468990;32;35173;-68
2021/12/24 02:49:17;;;;;;;47.47;26.90;;;;;;;0.96;65.98;99038.56;4468764;32;33571;-68
2021/12/24 02:54:30;;;;;;;49.22;28.05;;;;;;;0.74;66.63;99011.22;4469363;32;35039;-68
2021/12/24 02:57:07;;;;;;;2.15;1.65;;;;;;;0.12;69.22;99007.78;4469233;32;34817;-68
2021/12/24 02:59:37;;;;;;;2.72;2.05;;;;;;;0.62;67.92;99029.66;4468675;32;33445;-68
2021/12/24 03:02:05;;;;;;;54.15;29.08;;;;;;;1.10;66.34;99014.53;4469167;32;34677;-68
2021/12/24 03:04:33;;;;;;;56.40;29.92;;;;;;;0.51;67.44;99038.28;4469008;32;35032;-69
2021/12/24 03:07:02;;;;;;;53.30;29.00;;;;;;;0.08;69.56;99043.84;4469481;32;33848;-68
2021/12/24 03:09:30;;;;;;;50.25;28.25;;;;;;;0.08;70.21;99051.03;4468831;32;34436;-68
2021/12/24 03:11:59;;;;;;;52.28;28.27;;;;;;;0.38;69.09;99071.06;4469012;32;34128;-68
2021/12/24 03:14:26;;;;;;;2.78;2.22;;;;;;;0.76;67.99;99062.56;4468729;32;34220;-68
2021/12/24 03:16:58;;;;;;;53.00;29.63;;;;;;;0.93;68.00;99072.88;4469147;32;33865;-68
2021/12/24 03:19:30;;;;;;;50.78;28.38;;;;;;;0.79;68.08;99078.19;4468685;32;33723;-69
2021/12/24 03:22:13;;;;;;;52.25;29.52;;;;;;;0.63;68.88;99083.91;4469411;32;34004;-67
2021/12/24 03:24:41;;;;;;;2.03;1.83;;;;;;;0.02;71.24;99095.31;4468775;32;34060;-68
2021/12/24 03:27:09;;;;;;;54.22;28.23;;;;;;;0.78;68.84;99071.22;4468038;32;34170;-67
2021/12/24 03:29:36;;;;;;;51.37;28.38;;;;;;;0.89;68.44;99079.66;4468564;32;33615;-68
2021/12/24 03:32:04;;;;;;;46.67;26.95;;;;;;;1.19;67.26;99056.06;4468821;32;33552;-68
2021/12/24 03:34:32;;;;;;;55.25;30.25;;;;;;;1.41;66.42;99048.66;4468808;32;34309;-68
2021/12/24 03:37:00;;;;;;;50.90;28.75;;;;;;;1.13;67.29;99051.53;4468140;32;35087;-68
2021/12/24 03:39:28;;;;;;;51.75;28.90;;;;;;;1.10;67.83;99049.25;4468615;32;34326;-69
2021/12/24 03:41:57;;;;;;;51.15;27.87;;;;;;;2.09;64.50;99042.97;4468964;32;34224;-69
2021/12/24 03:44:32;;;;;;;12.80;8.07;;;;;;;1.28;66.09;99043.31;4468620;32;35048;-69
2021/12/24 03:47:09;;;;;;;53.45;29.15;;;;;;;1.00;68.16;99039.81;4468790;32;34012;-68
2021/12/24 03:49:53;;;;;;;1.35;1.25;;;;;;;1.10;67.85;99028.72;4468232;32;33689;-68
2021/12/24 03:54:57;;;;;;;45.72;27.50;;;;;;;1.70;65.70;99025.97;4468967;32;35024;-67
2021/12/24 03:57:37;;;;;;;56.15;29.10;;;;;;;1.99;64.90;99021.19;4469053;32;33920;-68
2021/12/24 04:00:26;;;;;;;3.33;2.87;;;;;;;1.78;65.07;99014.25;4468610;32;33741;-69
2021/12/24 04:02:54;;;;;;;53.97;29.50;;;;;;;1.15;67.32;99014.75;4468923;32;34812;-68
2021/12/24 04:05:26;;;;;;;51.97;28.08;;;;;;;1.06;68.19;99002.59;4468809;32;34010;-68
2021/12/24 04:07:54;;;;;;;5.35;3.60;;;;;;;0.99;68.59;99002.59;4468672;32;34049;-67
2021/12/24 04:10:35;;;;;;;50.50;26.73;;;;;;;1.50;66.79;98987.78;4468636;32;33801;-69
2021/12/24 04:13:11;;;;;;;53.72;27.65;;;;;;;1.46;66.99;98981.22;4468926;32;33882;-68
2021/12/24 04:15:39;;;;;;;48.38;27.60;;;;;;;1.50;66.96;98985.94;4467852;32;34272;-69
2021/12/24 04:18:13;;;;;;;48.83;26.85;;;;;;;1.30;67.68;98966.44;4443612;32;33958;-69
2021/12/24 04:26:14;;;;;;;45.58;26.48;;;;;;;1.16;68.39;98944.25;4468513;32;33983;-69
2021/12/24 04:28:42;;;;;;;47.90;26.58;;;;;;;1.26;67.95;98947.31;4468601;32;34289;-70
2021/12/24 04:31:10;;;;;;;49.47;27.13;;;;;;;1.23;68.04;98951.25;4468524;32;34074;-68
2021/12/24 04:33:40;;;;;;;50.75;27.05;;;;;;;1.83;66.28;98935.00;4468624;32;33746;-69
2021/12/24 04:36:38;;;;;;;47.83;26.92;;;;;;;1.82;65.60;98936.06;4468470;32;34898;-69
2021/12/24 05:01:21;;;;;;;5.95;2.45;;;;;;;1.51;67.81;98939.47;4468096;32;34207;-71
2021/12/24 05:03:48;;;;;;;49.03;28.20;;;;;;;1.15;69.18;98927.41;4467926;32;33780;-71
2021/12/24 05:08:51;;;;;;;50.40;28.25;;;;;;;1.36;68.54;98928.19;4468259;32;34316;-70
2021/12/24 05:11:20;;;;;;;47.62;27.37;;;;;;;1.26;68.76;98927.81;4468424;32;34113;-72
2021/12/24 05:13:48;;;;;;;48.10;27.50;;;;;;;1.29;69.00;98928.19;4468373;32;33586;-73
2021/12/24 05:16:43;;;;;;;47.03;28.00;;;;;;;1.00;69.75;98924.13;4467966;32;34002;-70
2021/12/24 05:21:48;;;;;;;51.03;28.65;;;;;;;1.57;67.56;98919.88;4468212;32;33996;-72
2021/12/24 05:24:18;;;;;;;49.97;27.98;;;;;;;1.66;66.80;98922.34;4467762;32;33801;-72
2021/12/24 05:26:51;;;;;;;53.95;29.37;;;;;;;1.83;66.42;98928.84;4468154;32;34740;-70
2021/12/24 05:29:19;;;;;;;50.28;27.95;;;;;;;2.07;65.83;98927.28;4467507;32;34152;-71
2021/12/24 05:31:47;;;;;;;50.17;27.73;;;;;;;2.00;65.59;98927.31;4467943;32;34464;-71
2021/12/24 05:34:17;;;;;;;52.45;27.52;;;;;;;1.40;67.60;98924.91;4467792;32;33745;-71
2021/12/24 05:36:46;;;;;;;31.20;16.70;;;;;;;1.34;68.13;98927.56;4467846;32;33957;-71
2021/12/24 05:39:16;;;;;;;51.75;29.17;;;;;;;0.96;70.06;98922.91;4466008;32;34216;-72
2021/12/24 05:41:45;;;;;;;49.35;28.80;;;;;;;1.42;68.62;98916.66;4467982;32;35185;-71
2021/12/24 05:44:16;;;;;;;48.13;26.73;;;;;;;1.09;69.73;98911.37;4467833;32;33771;-71
2021/12/24 05:46:45;;;;;;;44.90;26.37;;;;;;;1.08;69.36;98931.94;4467862;32;33864;-71
2021/12/24 05:49:13;;;;;;;48.78;26.85;;;;;;;1.15;68.79;98940.75;4467253;32;33879;-69
2021/12/24 05:51:47;;;;;;;48.87;27.87;;;;;;;1.16;68.72;98931.69;4471048;32;34266;-70
2021/12/24 05:54:17;;;;;;;48.75;26.90;;;;;;;1.64;67.19;98946.59;4483085;32;34637;-70
2021/12/24 05:56:45;;;;;;;50.72;27.42;;;;;;;1.63;66.86;98944.97;4483444;32;33596;-70
2021/12/24 05:59:13;;;;;;;53.87;28.42;;;;;;;1.13;68.72;98942.81;4482964;32;34970;-70
2021/12/24 06:01:41;;;;;;;48.78;27.00;;;;;;;1.56;67.57;98944.19;4484733;32;34142;-70
2021/12/24 06:04:09;;;;;;;52.78;28.05;;;;;;;1.17;69.12;98967.28;4485338;32;33807;-66
2021/12/24 06:06:37;;;;;;;12.13;8.07;;;;;;;1.17;69.20;98968.09;4484984;32;34679;-70
2021/12/24 06:09:04;;;;;;;48.20;27.75;;;;;;;1.73;67.52;98950.72;4484560;32;33915;-69
2021/12/24 06:11:32;;;;;;;51.13;28.85;;;;;;;1.35;68.63;98943.41;4485232;32;34801;-70
2021/12/24 06:14:08;;;;;;;50.05;27.95;;;;;;;1.20;69.48;98942.81;4485500;32;34326;-71
2021/12/24 06:16:37;;;;;;;2.75;2.45;;;;;;;1.87;67.55;98948.78;4483486;32;33753;-67
2021/12/24 06:19:04;;;;;;;48.72;28.05;;;;;;;1.92;67.26;98937.44;4480146;32;34301;-65
2021/12/24 06:21:32;;;;;;;47.70;27.62;;;;;;;1.09;69.78;98930.09;4482854;32;34178;-66
2021/12/24 06:24:00;;;;;;;50.40;29.50;;;;;;;1.21;69.73;98931.91;4484002;32;33477;-64
2021/12/24 06:26:27;;;;;;;49.78;28.42;;;;;;;1.36;69.06;98926.34;4484357;32;34835;-64
2021/12/24 06:28:55;;;;;;;2.42;1.30;;;;;;;1.37;68.90;98916.47;4484232;32;34266;-66
2021/12/24 06:31:22;;;;;;;45.58;27.33;;;;;;;1.72;67.69;98913.47;4484608;32;33889;-66
2021/12/24 06:33:50;;;;;;;50.67;28.20;;;;;;;1.51;67.77;98920.75;4483794;32;33766;-66
2021/12/24 06:36:17;;;;;;;48.03;26.67;;;;;;;1.00;69.62;98910.78;4484376;32;34744;-67
2021/12/24 06:38:45;;;;;;;1.85;1.48;;;;;;;1.09;69.62;98916.72;4484427;32;34712;-66
2021/12/24 06:41:12;;;;;;;52.60;28.50;;;;;;;2.11;66.30;98914.31;4484662;32;34408;-66
2021/12/24 06:43:40;;;;;;;49.38;28.42;;;;;;;1.35;69.14;98911.31;4484743;32;33379;-66
2021/12/24 06:46:11;;;;;;;49.05;28.73;;;;;;;1.56;68.41;98910.25;4479749;32;34068;-68
2021/12/24 06:48:41;;;;;;;51.47;30.02;;;;;;;1.48;68.82;98912.31;4466353;32;35076;-66
2021/12/24 06:51:09;;;;;;;50.75;28.75;;;;;;;1.27;69.34;98908.88;4468495;32;35040;-65
2021/12/24 06:53:37;;;;;;;54.67;30.23;;;;;;;1.60;69.11;98894.59;4468680;32;33716;-65
2021/12/24 06:56:04;;;;;;;6.43;3.80;;;;;;;1.59;68.86;98900.97;4468725;32;34856;-67
2021/12/24 06:58:33;;;;;;;47.47;28.90;;;;;;;1.74;68.63;98906.88;4468461;32;34104;-66
2021/12/24 07:01:01;;;;;;;58.75;30.75;;;;;;;2.25;67.09;98907.88;4468510;32;34669;-68
2021/12/24 07:03:29;;;;;;;50.75;29.42;;;;;;;1.55;69.15;98910.44;4468567;32;33918;-66
2021/12/24 07:05:57;;;;;;;50.00;28.73;;;;;;;1.53;69.82;98912.50;4468782;32;33314;-65
2021/12/24 07:08:24;;;;;;;51.65;28.73;;;;;;;1.79;68.65;98912.44;4468577;32;35116;-65
2021/12/24 07:10:52;;;;;;;4.45;3.08;;;;;;;1.53;69.70;98917.84;4467306;32;35241;-67
2021/12/24 07:13:20;;;;;;;51.92;29.73;;;;;;;1.18;71.48;98921.63;4468222;32;33338;-65
2021/12/24 07:15:47;;;;;;;51.58;29.40;;;;;;;2.25;68.10;98911.34;4468872;32;34749;-66
2021/12/24 07:18:15;;;;;;;0.98;0.90;;;;;;;1.82;69.53;98916.53;4467893;32;34336;-65
2021/12/24 07:20:42;;;;;;;54.55;29.60;;;;;;;1.32;72.79;98916.25;4468419;32;34294;-65
2021/12/24 07:23:10;;;;;;;54.20;29.48;;;;;;;2.09;70.19;98929.75;4471245;32;33315;-66
2021/12/24 07:25:37;;;;;;;50.40;29.58;;;;;;;1.81;70.46;98926.41;4483724;32;33738;-65
2021/12/24 07:28:05;;;;;;;3.20;2.90;;;;;;;1.82;70.05;98912.00;4483921;32;33810;-66
2021/12/24 07:30:33;;;;;;;1.95;1.30;;;;;;;1.50;71.51;98916.44;4483669;32;34209;-65
2021/12/24 07:33:00;;;;;;;50.15;29.52;;;;;;;1.87;70.21;98918.56;4483887;32;33558;-66
2021/12/24 07:35:28;;;;;;;54.38;29.55;;;;;;;2.16;69.11;98923.34;4484152;32;33736;-66
2021/12/24 07:37:56;;;;;;;51.25;30.52;;;;;;;2.03;70.11;98939.44;4483269;32;34311;-64
2021/12/24 07:40:25;;;;;;;2.40;2.20;;;;;;;2.64;68.00;98946.12;4481817;32;33790;-68
2021/12/24 07:42:55;;;;;;;51.28;30.00;;;;;;;2.28;69.51;98944.06;4483652;32;33702;-67
2021/12/24 07:45:22;;;;;;;2.72;2.37;;;;;;;1.88;71.01;98950.44;4484377;32;34347;-66
2021/12/24 07:48:06;;;;;;;52.70;30.05;;;;;;;1.93;71.26;98934.56;4483739;32;33754;-66
2021/12/24 07:53:06;;;;;;;3.72;1.95;;;;;;;1.81;71.33;98904.16;4483746;32;34042;-66
2021/12/24 07:55:35;;;;;;;2.87;1.87;;;;;;;2.69;68.95;98903.41;4483866;32;33991;-67
2021/12/24 07:58:05;;;;;;;1.95;1.80;;;;;;;2.77;68.19;98892.44;4483568;32;35366;-67
2021/12/24 08:00:33;;;;;;;48.40;28.42;;;;;;;3.08;67.17;98893.38;4482025;32;33660;-66
2021/12/24 08:03:04;;;;;;;46.33;27.20;;;;;;;2.38;69.55;98878.31;4483024;32;33948;-67
2021/12/24 08:05:35;;;;;;;1.87;1.77;;;;;;;2.51;69.67;98889.97;4484168;32;33985;-67
2021/12/24 08:08:03;;;;;;;52.92;31.12;;;;;;;2.78;69.61;98893.25;4482765;32;35150;-67
2021/12/24 08:10:31;;;;;;;53.70;31.98;;;;;;;2.91;68.46;98898.50;4483341;32;33874;-67
2021/12/24 08:12:58;;;;;;;33.45;20.30;;;;;;;2.37;70.84;98875.84;4483821;32;34452;-67
2021/12/24 08:15:26;;;;;;;37.90;22.52;;;;;;;2.69;70.27;98870.47;4482633;32;34538;-67
2021/12/24 08:17:53;;;;;;;1.60;1.50;;;;;;;2.56;70.93;98882.91;4482257;32;35149;-67
2021/12/24 08:20:25;;;;;;;35.60;19.40;;;;;;;3.06;69.06;98866.00;4483287;32;34053;-68
2021/12/24 08:22:54;;;;;;;42.22;20.73;;;;;;;3.26;68.46;98890.75;4483021;32;33641;-67
2021/12/24 08:25:23;;;;;;;41.50;21.17;;;;;;;3.20;68.45;98885.47;4483648;32;33908;-66
2021/12/24 08:27:50;;;;;;;35.17;20.27;;;;;;;3.49;67.98;98870.47;4483645;32;33975;-68
2021/12/24 08:30:18;;;;;;;1.95;1.58;;;;;;;2.90;70.58;98863.91;4494810;31;35024;-67
2021/12/24 08:32:45;;;;;;;33.78;19.87;;;;;;;3.53;69.74;98857.44;4483642;32;33365;-68
2021/12/24 08:35:20;;;;;;;37.45;21.85;;;;;;;3.99;67.14;98864.87;4471773;32;33811;-74
2021/12/24 08:37:48;;;;;;;45.63;24.63;;;;;;;3.86;67.72;98879.28;4467319;32;34172;-68
2021/12/24 08:40:16;;;;;;;38.45;21.75;;;;;;;4.34;66.56;98858.78;4466480;32;34639;-68
2021/12/24 08:42:43;;;;;;;36.47;22.92;;;;;;;3.70;68.88;98859.28;4466101;32;34479;-67
2021/12/24 08:45:11;;;;;;;34.33;19.10;;;;;;;3.93;68.38;98865.81;4468031;32;34650;-68
2021/12/24 08:47:39;;;;;;;7.30;3.95;;;;;;;3.72;69.42;98842.16;4468417;32;34157;-67
2021/12/24 08:50:10;;;;;;;33.15;19.25;;;;;;;4.27;67.80;98847.34;4467659;32;34722;-68
2021/12/24 08:52:37;;;;;;;33.53;19.50;;;;;;;4.39;68.18;98848.19;4479815;32;33789;-67
2021/12/24 08:55:05;;;;;;;31.23;19.20;;;;;;;4.55;68.32;98853.94;4466777;32;33997;-70
2021/12/24 08:57:33;;;;;;;34.47;19.55;;;;;;;4.91;66.71;98851.03;4467958;32;33899;-68
2021/12/24 09:00:00;;;;;;;34.70;22.62;;;;;;;5.38;64.59;98860.97;4467314;32;33704;-68
2021/12/24 09:02:28;;;;;;;31.12;18.77;;;;;;;5.43;64.80;98857.56;4467816;32;33694;-68
2021/12/24 09:04:55;;;;;;;28.23;18.02;;;;;;;6.00;62.82;98851.44;4468408;32;33870;-71
2021/12/24 09:07:23;;;;;;;30.60;17.27;;;;;;;5.65;63.93;98838.88;4468223;32;33581;-68
2021/12/24 09:09:50;;;;;;;29.85;17.52;;;;;;;5.53;65.82;98842.44;4467681;32;34226;-67
2021/12/24 09:12:18;;;;;;;30.42;17.50;;;;;;;5.04;66.67;98847.31;4482065;32;34616;-68
2021/12/24 09:14:45;;;;;;;28.38;17.52;;;;;;;5.09;66.30;98847.41;4483229;32;34750;-69
2021/12/24 09:17:13;;;;;;;27.40;16.27;;;;;;;5.71;64.09;98851.41;4482012;32;34288;-68
2021/12/24 09:19:49;;;;;;;30.20;17.73;;;;;;;5.92;63.02;98858.00;4482113;32;34074;-69
2021/12/24 09:22:18;;;;;;;26.60;16.67;;;;;;;5.74;63.44;98861.66;4482097;32;34281;-68
2021/12/24 09:24:47;;;;;;;26.30;16.20;;;;;;;5.83;63.25;98856.72;4472240;32;34774;-68
2021/12/24 09:27:15;;;;;;;27.65;16.20;;;;;;;6.40;62.11;98854.03;4482325;32;34314;-68
2021/12/24 09:29:43;;;;;;;33.40;19.60;;;;;;;6.11;63.01;98845.16;4481829;32;35015;-68
2021/12/24 09:32:10;;;;;;;33.25;19.85;;;;;;;5.40;65.40;98831.94;4481867;32;33574;-67
2021/12/24 09:34:38;;;;;;;27.65;16.48;;;;;;;6.37;62.59;98828.41;4483226;32;33772;-68
2021/12/24 09:37:06;;;;;;;25.20;15.57;;;;;;;5.83;64.04;98827.09;4483480;32;33973;-70
2021/12/24 09:39:33;;;;;;;29.17;16.55;;;;;;;6.04;63.14;98815.69;4484902;32;33923;-71
2021/12/24 09:42:02;;;;;;;27.15;16.33;;;;;;;5.71;64.92;98816.41;4484801;32;34648;-70
2021/12/24 09:44:30;;;;;;;28.12;16.50;;;;;;;5.84;64.20;98813.41;4484060;32;33980;-68
2021/12/24 09:46:57;;;;;;;28.55;16.50;;;;;;;5.57;65.26;98809.66;4485143;32;35070;-69
2021/12/24 09:49:24;;;;;;;30.30;16.67;;;;;;;5.42;65.64;98796.72;4483744;32;35159;-68
2021/12/24 09:51:53;;;;;;;26.83;16.55;;;;;;;5.81;64.72;98789.69;4484749;32;34439;-71
2021/12/24 09:54:24;;;;;;;30.27;16.80;;;;;;;5.79;65.29;98781.03;4484085;32;34491;-68
2021/12/24 09:56:53;;;;;;;29.87;17.23;;;;;;;5.76;65.13;98787.69;4484250;32;34187;-71
2021/12/24 09:59:20;;;;;;;26.48;16.58;;;;;;;6.24;63.70;98787.47;4482907;32;34226;-66
2021/12/24 10:01:57;;;;;;;31.45;17.42;;;;;;;6.59;62.76;98776.47;4485210;32;34596;-67
2021/12/24 10:04:28;;;;;;;38.45;19.98;;;;;;;5.95;64.25;98766.00;4484432;32;34652;-66
2021/12/24 10:07:03;;;;;;;31.83;18.23;;;;;;;6.10;65.03;98768.94;4485046;32;33809;-66
2021/12/24 10:09:35;;;;;;;29.98;17.67;;;;;;;5.79;66.48;98769.44;4484390;32;33950;-67
2021/12/24 10:12:07;;;;;;;27.33;17.83;;;;;;;6.06;65.03;98762.41;4485021;32;34731;-68
2021/12/24 10:14:40;;;;;;;32.83;21.47;;;;;;;6.37;63.39;98747.56;4485069;32;35438;-68
2021/12/24 10:17:19;;;;;;;27.85;16.75;;;;;;;6.75;62.81;98756.75;4485017;32;34139;-68
2021/12/24 10:19:48;;;;;;;29.40;17.30;;;;;;;6.62;62.85;98743.63;4484154;32;34778;-68
2021/12/24 10:22:16;;;;;;;30.73;16.42;;;;;;;6.23;64.52;98754.34;4484937;32;34512;-68
2021/12/24 10:24:59;;;;;;;27.60;16.83;;;;;;;6.27;64.96;98749.28;4484623;32;33872;-67
2021/12/24 10:27:32;;;;;;;31.20;17.60;;;;;;;6.76;63.89;98750.31;4484792;32;34184;-68
2021/12/24 10:30:23;;;;;;;29.80;18.08;;;;;;;6.90;63.07;98748.06;4484153;32;34328;-68
2021/12/24 10:32:53;;;;;;;26.65;16.35;;;;;;;7.43;61.63;98750.31;4496604;31;34151;-67
2021/12/24 10:35:26;;;;;;;26.27;16.17;;;;;;;6.62;64.40;98746.31;4484287;32;33862;-67
2021/12/24 10:38:13;;;;;;;26.73;15.60;;;;;;;6.66;62.96;98741.25;4485153;32;34167;-68
2021/12/24 10:40:55;;;;;;;25.15;15.20;;;;;;;7.30;62.58;98746.09;4484537;32;33865;-67
2021/12/24 10:43:28;;;;;;;33.65;16.50;;;;;;;7.37;61.61;98747.56;4484812;32;33687;-68
2021/12/24 10:46:16;;;;;;;26.33;15.88;;;;;;;7.45;60.49;98745.47;4483494;32;33466;-68
2021/12/24 10:49:16;;;;;;;27.95;15.57;;;;;;;7.29;61.90;98742.59;4483287;32;34179;-68
2021/12/24 10:52:01;;;;;;;27.33;16.00;;;;;;;8.00;59.87;98737.13;4484437;32;35771;-67
2021/12/24 10:54:28;;;;;;;26.80;15.13;;;;;;;8.55;56.65;98726.22;4496401;31;33594;-68
2021/12/24 10:57:17;;;;;;;26.60;14.95;;;;;;;7.90;58.08;98714.59;4483245;32;34078;-68
2021/12/24 10:59:49;;;;;;;29.10;16.15;;;;;;;7.92;58.80;98729.47;4479052;32;34670;-66
2021/12/24 11:02:17;;;;;;;38.60;21.98;;;;;;;7.49;60.40;98730.41;4484396;32;33632;-68
2021/12/24 11:04:45;;;;;;;31.40;17.65;;;;;;;7.69;59.85;98727.94;4483877;32;33774;-67
2021/12/24 11:07:38;;;;;;;29.12;17.05;;;;;;;7.01;61.83;98718.53;4484287;32;33759;-67
2021/12/24 11:10:19;;;;;;;29.27;16.27;;;;;;;6.74;64.15;98720.06;4483838;32;33969;-67
2021/12/24 11:12:49;;;;;;;26.00;16.08;;;;;;;7.29;63.13;98734.50;4484231;32;33865;-68
2021/12/24 11:15:19;;;;;;;27.13;16.58;;;;;;;7.49;62.17;98727.69;4483906;32;34183;-67
2021/12/24 11:17:48;;;;;;;21.08;12.27;;;;;;;7.20;63.03;98733.31;4484326;32;34120;-68
2021/12/24 11:20:15;;;;;;;19.87;11.63;;;;;;;7.15;62.55;98722.50;4483606;32;34874;-69
2021/12/24 11:23:08;;;;;;;30.45;14.13;;;;;;;7.87;60.82;98724.03;4482979;32;34517;-67
2021/12/24 11:25:43;;;;;;;20.80;10.38;;;;;;;8.25;59.28;98706.00;4482845;32;33189;-67
2021/12/24 11:28:13;;;;;;;19.27;10.23;;;;;;;8.39;58.70;98706.34;4484163;32;34467;-67
2021/12/24 11:30:44;;;;;;;18.40;9.70;;;;;;;8.76;57.48;98721.75;4483289;32;34710;-68
2021/12/24 11:33:18;;;;;;;15.80;8.63;;;;;;;8.39;58.57;98719.87;4482503;32;34843;-67
2021/12/24 11:35:46;;;;;;;14.10;7.75;;;;;;;8.78;58.50;98720.41;4484183;32;34236;-67
2021/12/24 11:38:17;;;;;;;17.55;9.10;;;;;;;9.02;56.47;98707.25;4482253;32;33728;-65
2021/12/24 11:40:46;;;;;;;15.70;8.55;;;;;;;8.92;56.84;98701.81;4483701;32;33763;-67
2021/12/24 11:43:15;;;;;;;16.05;8.95;;;;;;;8.88;57.29;98694.50;4495920;31;34107;-67
2021/12/24 11:45:42;;;;;;;13.20;8.02;;;;;;;9.01;57.47;98694.81;4481932;32;34290;-67
2021/12/24 11:48:10;;;;;;;12.70;7.43;;;;;;;9.12;56.54;98694.88;4482724;32;33425;-70
2021/12/24 11:50:39;;;;;;;13.38;7.82;;;;;;;9.24;56.35;98690.03;4483421;32;33547;-72
2021/12/24 11:53:09;;;;;;;11.23;7.20;;;;;;;9.73;55.27;98696.91;4481380;32;34970;-71
2021/12/24 11:55:42;;;;;;;12.30;7.20;;;;;;;9.68;55.09;98702.31;4482740;32;33578;-74
2021/12/24 11:58:19;;;;;;;13.43;7.78;;;;;;;9.58;55.18;98703.09;4482862;32;33975;-68
2021/12/24 12:00:49;;;;;;;14.00;8.15;;;;;;;9.13;57.43;98691.88;4482191;32;34179;-68
2021/12/24 12:03:37;;;;;;;15.13;8.15;;;;;;;9.60;55.96;98693.62;4483708;32;34847;-69
2021/12/24 12:06:10;;;;;;;13.20;7.62;;;;;;;9.89;55.58;98693.13;4484205;32;33777;-70
2021/12/24 12:08:40;;;;;;;11.52;6.72;;;;;;;10.00;54.86;98692.06;4483164;32;34489;-67
2021/12/24 12:11:23;;;;;;;13.95;6.90;;;;;;;10.41;54.15;98694.78;4481990;32;34756;-69
2021/12/24 12:13:57;;;;;;;13.48;7.18;;;;;;;10.39;54.20;98693.41;4480844;32;34219;-67
2021/12/24 12:18:28;;;;;;;14.32;7.90;;;;;;;10.53;54.00;98688.22;4522742;31;143602;-70
2021/12/24 12:21:10;;;;;;;12.45;7.65;;;;;;;10.53;54.00;98688.22;4510422;31;33769;-70
2021/12/24 12:26:44;;;;;;;20.05;11.10;;;;;;;10.07;55.70;98698.00;4511588;31;34291;-69
2021/12/24 12:29:21;;;;;;;13.20;7.10;;;;;;;9.96;55.87;98698.28;4483494;31;33270;-66
2021/12/24 12:31:54;;;;;;;12.48;6.62;;;;;;;10.13;55.82;98695.28;4511368;31;33068;-65
2021/12/24 12:34:40;;;;;;;35.92;19.87;;;;;;;10.41;54.58;98694.78;4511534;31;33908;-67
2021/12/24 12:37:17;;;;;;;14.27;8.45;;;;;;;10.35;54.60;98687.72;4511930;31;35009;-66
2021/12/24 12:39:50;;;;;;;18.35;10.93;;;;;;;10.01;55.99;98692.88;4511534;31;33588;-73
2021/12/24 12:42:19;;;;;;;13.17;7.93;;;;;;;10.04;56.42;98695.00;4510301;31;34336;-71
2021/12/24 12:44:53;;;;;;;14.48;7.90;;;;;;;9.76;57.75;98696.34;4509711;31;34391;-73
2021/12/24 12:47:27;;;;;;;14.13;8.30;;;;;;;9.68;58.19;98699.63;4507178;31;34086;-73
2021/12/24 12:50:15;;;;;;;13.57;8.70;;;;;;;9.73;58.68;98691.50;4495512;32;34337;-68
2021/12/24 12:52:43;;;;;;;14.60;8.10;;;;;;;9.82;59.68;98696.09;4495867;31;33135;-72
2021/12/24 12:55:31;;;;;;;15.38;8.43;;;;;;;9.79;60.62;98695.84;4495457;31;33744;-68
2021/12/24 12:58:25;;;;;;;12.55;7.90;;;;;;;9.15;64.34;98700.53;4493930;31;34201;-71
2021/12/24 13:01:26;;;;;;;13.10;8.00;;;;;;;9.61;63.51;98697.16;4493166;31;35112;-74
2021/12/24 13:03:57;;;;;;;13.77;8.35;;;;;;;9.92;62.73;98698.00;4460814;31;33296;-85
2021/12/24 13:06:38;;;;;;;14.55;8.68;;;;;;;9.86;63.13;98686.34;4495451;31;34483;-73
2021/12/24 13:09:08;;;;;;;16.98;9.63;;;;;;;10.10;63.34;98688.50;4495600;32;34256;-68
2021/12/24 13:11:39;;;;;;;16.15;9.52;;;;;;;10.02;63.89;98681.75;4495884;32;34563;-67
2021/12/24 13:14:07;;;;;;;13.48;9.15;;;;;;;9.34;67.52;98689.25;4492751;31;33551;-63
2021/12/24 13:16:37;;;;;;;16.17;9.90;;;;;;;10.01;65.27;98693.66;4495613;31;34021;-66
2021/12/24 13:19:32;;;;;;;15.07;9.55;;;;;;;10.10;64.57;98695.84;4495346;31;35328;-67
2021/12/24 13:25:04;;;;;;;20.92;10.13;;;;;;;10.18;63.78;98708.84;4495242;31;33610;-63
2021/12/24 13:27:38;;;;;;;20.17;9.90;;;;;;;9.60;65.61;98719.91;4494062;31;33205;-63